Dover Annex, New Jersey
Current Conditions -  °F | °C
As of 2:45 PM on Sunday 25 Jan 2015 (Local Time) from KMMU Reporting Station
Broken Clouds Broken Clouds  
Wind Chill: 34°   Ceiling: 18000
Heat Index: 41°   Visibility: 10mi
Dew Point: 14°   Wind: 12mph
Humidity: 33%   Direction: 310°NW
Pressure: 29.8"   Gusts: 18mph
Location:  40.9293°N, 74.5472°W
Report Text: KMMU 251945Z 31010G16KT 10SM SCT130 BKN180 05/M10 A2980
Loading
Personal Weather Stations






























Interactive Weather Map New forecast layout! Learn more

10-Day Weather Forecast

Advertisements
Track Severe Weather on mobile